sensor_id;sensor_type;location;lat;lon;timestamp;P1;durP1;ratioP1;P2;durP2;ratioP2
73571;SDS011;61854;48.510;-2.770;2023-07-29T00:01:22;3.05;;;0.80;;
73571;SDS011;61854;48.510;-2.770;2023-07-29T00:03:47;1.67;;;0.70;;
73571;SDS011;61854;48.510;-2.770;2023-07-29T00:06:13;2.85;;;0.90;;
73571;SDS011;61854;48.510;-2.770;2023-07-29T00:08:38;1.90;;;0.80;;
73571;SDS011;61854;48.510;-2.770;2023-07-29T00:11:04;4.10;;;1.08;;
73571;SDS011;61854;48.510;-2.770;2023-07-29T00:13:30;1.20;;;0.60;;
73571;SDS011;61854;48.510;-2.770;2023-07-29T00:15:55;2.08;;;0.90;;
73571;SDS011;61854;48.510;-2.770;2023-07-29T00:18:22;2.03;;;0.90;;
73571;SDS011;61854;48.510;-2.770;2023-07-29T00:20:48;1.75;;;0.77;;
73571;SDS011;61854;48.510;-2.770;2023-07-29T00:23:15;2.78;;;1.05;;
73571;SDS011;61854;48.510;-2.770;2023-07-29T00:25:43;2.35;;;0.80;;
73571;SDS011;61854;48.510;-2.770;2023-07-29T00:28:09;2.20;;;0.90;;
73571;SDS011;61854;48.510;-2.770;2023-07-29T00:30:36;4.32;;;0.85;;
73571;SDS011;61854;48.510;-2.770;2023-07-29T00:33:02;2.15;;;0.77;;
73571;SDS011;61854;48.510;-2.770;2023-07-29T00:35:27;3.97;;;1.08;;
73571;SDS011;61854;48.510;-2.770;2023-07-29T00:37:53;2.05;;;0.90;;
73571;SDS011;61854;48.510;-2.770;2023-07-29T00:40:19;1.98;;;0.98;;
73571;SDS011;61854;48.510;-2.770;2023-07-29T00:42:46;2.50;;;1.00;;
73571;SDS011;61854;48.510;-2.770;2023-07-29T00:45:12;2.72;;;0.90;;
73571;SDS011;61854;48.510;-2.770;2023-07-29T00:47:38;2.75;;;0.90;;
73571;SDS011;61854;48.510;-2.770;2023-07-29T00:50:04;1.27;;;0.70;;
73571;SDS011;61854;48.510;-2.770;2023-07-29T00:52:32;2.58;;;0.77;;
73571;SDS011;61854;48.510;-2.770;2023-07-29T00:54:57;3.17;;;0.82;;
73571;SDS011;61854;48.510;-2.770;2023-07-29T00:57:23;1.70;;;0.68;;
73571;SDS011;61854;48.510;-2.770;2023-07-29T00:59:50;1.08;;;0.52;;
73571;SDS011;61854;48.510;-2.770;2023-07-29T01:02:16;2.13;;;0.60;;
73571;SDS011;61854;48.510;-2.770;2023-07-29T01:04:42;1.40;;;0.80;;
73571;SDS011;61854;48.510;-2.770;2023-07-29T01:07:14;1.98;;;0.70;;
73571;SDS011;61854;48.510;-2.770;2023-07-29T01:15:16;2.65;;;0.70;;
73571;SDS011;61854;48.510;-2.770;2023-07-29T01:17:59;4.70;;;0.90;;
73571;SDS011;61854;48.510;-2.770;2023-07-29T01:20:32;2.40;;;0.85;;
73571;SDS011;61854;48.510;-2.770;2023-07-29T01:22:59;2.97;;;1.10;;
73571;SDS011;61854;48.510;-2.770;2023-07-29T01:25:24;3.28;;;1.20;;
73571;SDS011;61854;48.510;-2.770;2023-07-29T01:27:51;3.83;;;1.33;;
73571;SDS011;61854;48.510;-2.770;2023-07-29T01:30:17;1.92;;;1.02;;
73571;SDS011;61854;48.510;-2.770;2023-07-29T01:35:23;3.33;;;1.13;;
73571;SDS011;61854;48.510;-2.770;2023-07-29T01:37:55;5.68;;;1.20;;
73571;SDS011;61854;48.510;-2.770;2023-07-29T01:40:41;5.07;;;1.40;;
73571;SDS011;61854;48.510;-2.770;2023-07-29T01:43:08;3.42;;;1.52;;
73571;SDS011;61854;48.510;-2.770;2023-07-29T01:45:34;4.55;;;1.48;;
73571;SDS011;61854;48.510;-2.770;2023-07-29T01:48:04;4.05;;;1.35;;
73571;SDS011;61854;48.510;-2.770;2023-07-29T01:50:30;5.25;;;1.58;;
73571;SDS011;61854;48.510;-2.770;2023-07-29T01:52:57;3.53;;;1.35;;
73571;SDS011;61854;48.510;-2.770;2023-07-29T01:55:23;2.88;;;1.00;;
73571;SDS011;61854;48.510;-2.770;2023-07-29T01:57:49;3.47;;;1.25;;
73571;SDS011;61854;48.510;-2.770;2023-07-29T02:00:15;3.13;;;1.15;;
73571;SDS011;61854;48.510;-2.770;2023-07-29T02:02:41;3.72;;;1.10;;
73571;SDS011;61854;48.510;-2.770;2023-07-29T02:05:06;5.15;;;1.30;;
73571;SDS011;61854;48.510;-2.770;2023-07-29T02:07:32;4.07;;;1.10;;
73571;SDS011;61854;48.510;-2.770;2023-07-29T02:09:58;3.28;;;1.20;;
73571;SDS011;61854;48.510;-2.770;2023-07-29T02:14:51;2.38;;;1.13;;
73571;SDS011;61854;48.510;-2.770;2023-07-29T02:17:17;3.58;;;1.17;;
73571;SDS011;61854;48.510;-2.770;2023-07-29T02:19:43;2.45;;;1.08;;
73571;SDS011;61854;48.510;-2.770;2023-07-29T02:22:10;3.88;;;1.52;;
73571;SDS011;61854;48.510;-2.770;2023-07-29T02:24:38;4.20;;;1.30;;
73571;SDS011;61854;48.510;-2.770;2023-07-29T02:27:03;2.97;;;1.27;;
73571;SDS011;61854;48.510;-2.770;2023-07-29T02:29:29;6.28;;;1.20;;
73571;SDS011;61854;48.510;-2.770;2023-07-29T02:31:55;3.38;;;1.08;;
73571;SDS011;61854;48.510;-2.770;2023-07-29T02:34:21;4.95;;;1.25;;
73571;SDS011;61854;48.510;-2.770;2023-07-29T02:36:46;4.38;;;1.50;;
73571;SDS011;61854;48.510;-2.770;2023-07-29T02:39:12;2.65;;;1.15;;
73571;SDS011;61854;48.510;-2.770;2023-07-29T02:41:38;4.10;;;1.42;;
73571;SDS011;61854;48.510;-2.770;2023-07-29T02:44:04;5.30;;;1.60;;
73571;SDS011;61854;48.510;-2.770;2023-07-29T02:46:30;5.63;;;1.65;;
73571;SDS011;61854;48.510;-2.770;2023-07-29T02:48:55;4.15;;;1.23;;
73571;SDS011;61854;48.510;-2.770;2023-07-29T02:51:24;4.30;;;1.40;;
73571;SDS011;61854;48.510;-2.770;2023-07-29T02:53:49;4.30;;;1.52;;
73571;SDS011;61854;48.510;-2.770;2023-07-29T02:56:15;3.15;;;1.10;;
73571;SDS011;61854;48.510;-2.770;2023-07-29T02:58:41;3.38;;;1.30;;
73571;SDS011;61854;48.510;-2.770;2023-07-29T03:01:06;3.08;;;1.25;;
73571;SDS011;61854;48.510;-2.770;2023-07-29T03:03:32;2.65;;;1.35;;
73571;SDS011;61854;48.510;-2.770;2023-07-29T03:06:08;2.40;;;1.25;;
73571;SDS011;61854;48.510;-2.770;2023-07-29T03:08:35;7.60;;;1.45;;
73571;SDS011;61854;48.510;-2.770;2023-07-29T03:11:07;4.28;;;1.38;;
73571;SDS011;61854;48.510;-2.770;2023-07-29T03:13:35;2.70;;;1.30;;
73571;SDS011;61854;48.510;-2.770;2023-07-29T03:16:04;4.57;;;1.45;;
73571;SDS011;61854;48.510;-2.770;2023-07-29T03:18:34;4.35;;;1.60;;
73571;SDS011;61854;48.510;-2.770;2023-07-29T03:21:00;8.48;;;2.00;;
73571;SDS011;61854;48.510;-2.770;2023-07-29T03:23:25;5.70;;;1.65;;
73571;SDS011;61854;48.510;-2.770;2023-07-29T03:25:52;3.97;;;1.50;;
73571;SDS011;61854;48.510;-2.770;2023-07-29T03:28:22;3.58;;;1.80;;
73571;SDS011;61854;48.510;-2.770;2023-07-29T03:30:49;6.97;;;1.87;;
73571;SDS011;61854;48.510;-2.770;2023-07-29T03:33:14;4.53;;;1.92;;
73571;SDS011;61854;48.510;-2.770;2023-07-29T03:35:40;7.60;;;1.70;;
73571;SDS011;61854;48.510;-2.770;2023-07-29T03:38:09;5.10;;;1.90;;
73571;SDS011;61854;48.510;-2.770;2023-07-29T03:40:35;5.30;;;1.80;;
73571;SDS011;61854;48.510;-2.770;2023-07-29T03:43:01;4.53;;;1.70;;
73571;SDS011;61854;48.510;-2.770;2023-07-29T03:45:27;6.47;;;2.08;;
73571;SDS011;61854;48.510;-2.770;2023-07-29T03:47:52;5.57;;;2.00;;
73571;SDS011;61854;48.510;-2.770;2023-07-29T03:50:18;4.10;;;1.88;;
73571;SDS011;61854;48.510;-2.770;2023-07-29T03:52:43;4.75;;;2.00;;
73571;SDS011;61854;48.510;-2.770;2023-07-29T03:55:09;3.33;;;1.60;;
73571;SDS011;61854;48.510;-2.770;2023-07-29T03:57:35;4.97;;;2.00;;
73571;SDS011;61854;48.510;-2.770;2023-07-29T04:00:01;4.80;;;1.90;;
73571;SDS011;61854;48.510;-2.770;2023-07-29T04:02:27;4.78;;;1.77;;
73571;SDS011;61854;48.510;-2.770;2023-07-29T04:04:52;5.00;;;1.92;;
73571;SDS011;61854;48.510;-2.770;2023-07-29T04:07:18;4.38;;;1.58;;
73571;SDS011;61854;48.510;-2.770;2023-07-29T04:09:43;3.72;;;1.50;;
73571;SDS011;61854;48.510;-2.770;2023-07-29T04:12:09;3.45;;;1.45;;
73571;SDS011;61854;48.510;-2.770;2023-07-29T04:14:35;3.20;;;1.40;;
73571;SDS011;61854;48.510;-2.770;2023-07-29T04:17:01;4.75;;;1.88;;
73571;SDS011;61854;48.510;-2.770;2023-07-29T04:19:26;5.32;;;1.88;;
73571;SDS011;61854;48.510;-2.770;2023-07-29T04:21:52;5.15;;;1.80;;
73571;SDS011;61854;48.510;-2.770;2023-07-29T04:24:17;3.50;;;1.67;;
73571;SDS011;61854;48.510;-2.770;2023-07-29T04:26:45;6.05;;;1.65;;
73571;SDS011;61854;48.510;-2.770;2023-07-29T04:29:11;4.30;;;1.70;;
73571;SDS011;61854;48.510;-2.770;2023-07-29T04:31:37;6.85;;;2.30;;
73571;SDS011;61854;48.510;-2.770;2023-07-29T04:34:04;3.72;;;1.80;;
73571;SDS011;61854;48.510;-2.770;2023-07-29T04:36:30;3.00;;;1.65;;
73571;SDS011;61854;48.510;-2.770;2023-07-29T04:38:55;3.85;;;1.60;;
73571;SDS011;61854;48.510;-2.770;2023-07-29T04:41:21;5.07;;;1.73;;
73571;SDS011;61854;48.510;-2.770;2023-07-29T04:43:46;4.88;;;1.70;;
73571;SDS011;61854;48.510;-2.770;2023-07-29T04:46:14;3.53;;;1.48;;
73571;SDS011;61854;48.510;-2.770;2023-07-29T04:48:40;3.95;;;1.23;;
73571;SDS011;61854;48.510;-2.770;2023-07-29T04:51:06;3.47;;;1.40;;
73571;SDS011;61854;48.510;-2.770;2023-07-29T04:53:31;4.22;;;1.50;;
73571;SDS011;61854;48.510;-2.770;2023-07-29T04:55:58;2.55;;;1.30;;
73571;SDS011;61854;48.510;-2.770;2023-07-29T04:58:24;3.20;;;1.40;;
73571;SDS011;61854;48.510;-2.770;2023-07-29T05:00:49;4.53;;;1.40;;
73571;SDS011;61854;48.510;-2.770;2023-07-29T05:03:15;3.55;;;1.25;;
73571;SDS011;61854;48.510;-2.770;2023-07-29T05:05:41;4.25;;;1.38;;
73571;SDS011;61854;48.510;-2.770;2023-07-29T05:08:06;2.60;;;1.30;;
73571;SDS011;61854;48.510;-2.770;2023-07-29T05:10:32;4.20;;;1.20;;
73571;SDS011;61854;48.510;-2.770;2023-07-29T05:12:59;4.15;;;1.30;;
73571;SDS011;61854;48.510;-2.770;2023-07-29T05:15:25;3.10;;;1.10;;
73571;SDS011;61854;48.510;-2.770;2023-07-29T05:17:50;2.85;;;1.23;;
73571;SDS011;61854;48.510;-2.770;2023-07-29T05:20:16;4.70;;;1.15;;
73571;SDS011;61854;48.510;-2.770;2023-07-29T05:22:41;1.90;;;0.88;;
73571;SDS011;61854;48.510;-2.770;2023-07-29T05:25:07;3.83;;;1.00;;
73571;SDS011;61854;48.510;-2.770;2023-07-29T05:27:33;1.80;;;0.90;;
73571;SDS011;61854;48.510;-2.770;2023-07-29T05:29:58;2.38;;;0.95;;
73571;SDS011;61854;48.510;-2.770;2023-07-29T05:32:24;3.42;;;0.70;;
73571;SDS011;61854;48.510;-2.770;2023-07-29T05:34:50;2.65;;;0.90;;
73571;SDS011;61854;48.510;-2.770;2023-07-29T05:37:16;1.50;;;0.80;;
73571;SDS011;61854;48.510;-2.770;2023-07-29T05:39:41;2.55;;;0.88;;
73571;SDS011;61854;48.510;-2.770;2023-07-29T05:42:07;2.38;;;0.93;;
73571;SDS011;61854;48.510;-2.770;2023-07-29T05:44:33;3.40;;;1.08;;
73571;SDS011;61854;48.510;-2.770;2023-07-29T05:46:58;4.90;;;1.02;;
73571;SDS011;61854;48.510;-2.770;2023-07-29T05:49:24;2.90;;;0.98;;
73571;SDS011;61854;48.510;-2.770;2023-07-29T05:51:50;2.90;;;0.98;;
73571;SDS011;61854;48.510;-2.770;2023-07-29T05:54:17;5.72;;;1.10;;
73571;SDS011;61854;48.510;-2.770;2023-07-29T05:56:43;3.40;;;1.20;;
73571;SDS011;61854;48.510;-2.770;2023-07-29T05:59:09;7.45;;;1.20;;
73571;SDS011;61854;48.510;-2.770;2023-07-29T06:01:35;5.13;;;1.10;;
73571;SDS011;61854;48.510;-2.770;2023-07-29T06:04:00;3.42;;;1.20;;
73571;SDS011;61854;48.510;-2.770;2023-07-29T06:06:26;4.13;;;1.38;;
73571;SDS011;61854;48.510;-2.770;2023-07-29T06:08:52;3.85;;;1.05;;
73571;SDS011;61854;48.510;-2.770;2023-07-29T06:11:18;3.35;;;1.45;;
73571;SDS011;61854;48.510;-2.770;2023-07-29T06:13:43;4.47;;;1.38;;
73571;SDS011;61854;48.510;-2.770;2023-07-29T06:16:09;3.42;;;1.27;;
73571;SDS011;61854;48.510;-2.770;2023-07-29T06:18:35;4.72;;;1.20;;
73571;SDS011;61854;48.510;-2.770;2023-07-29T06:21:00;6.13;;;1.20;;
73571;SDS011;61854;48.510;-2.770;2023-07-29T06:23:26;6.25;;;1.50;;
73571;SDS011;61854;48.510;-2.770;2023-07-29T06:25:51;4.18;;;1.60;;
73571;SDS011;61854;48.510;-2.770;2023-07-29T06:28:17;3.90;;;1.60;;
73571;SDS011;61854;48.510;-2.770;2023-07-29T06:30:43;6.78;;;1.50;;
73571;SDS011;61854;48.510;-2.770;2023-07-29T06:33:08;7.68;;;1.80;;
73571;SDS011;61854;48.510;-2.770;2023-07-29T06:35:34;4.78;;;1.80;;
73571;SDS011;61854;48.510;-2.770;2023-07-29T06:38:00;6.50;;;1.75;;
73571;SDS011;61854;48.510;-2.770;2023-07-29T06:40:25;7.85;;;2.00;;
73571;SDS011;61854;48.510;-2.770;2023-07-29T06:42:51;8.30;;;2.00;;
73571;SDS011;61854;48.510;-2.770;2023-07-29T06:45:17;6.20;;;1.75;;
73571;SDS011;61854;48.510;-2.770;2023-07-29T06:47:42;6.78;;;1.70;;
73571;SDS011;61854;48.510;-2.770;2023-07-29T06:50:08;8.70;;;2.38;;
73571;SDS011;61854;48.510;-2.770;2023-07-29T06:52:34;9.40;;;1.90;;
73571;SDS011;61854;48.510;-2.770;2023-07-29T06:55:01;7.30;;;1.85;;
73571;SDS011;61854;48.510;-2.770;2023-07-29T06:57:27;5.70;;;1.90;;
73571;SDS011;61854;48.510;-2.770;2023-07-29T06:59:56;8.60;;;2.20;;
73571;SDS011;61854;48.510;-2.770;2023-07-29T07:02:22;7.50;;;2.10;;
73571;SDS011;61854;48.510;-2.770;2023-07-29T07:04:47;6.82;;;1.95;;
73571;SDS011;61854;48.510;-2.770;2023-07-29T07:07:13;6.68;;;1.95;;
73571;SDS011;61854;48.510;-2.770;2023-07-29T07:09:38;7.85;;;2.30;;
73571;SDS011;61854;48.510;-2.770;2023-07-29T07:12:04;7.63;;;2.20;;
73571;SDS011;61854;48.510;-2.770;2023-07-29T07:14:30;6.85;;;2.20;;
73571;SDS011;61854;48.510;-2.770;2023-07-29T07:16:55;9.90;;;2.03;;
73571;SDS011;61854;48.510;-2.770;2023-07-29T07:19:21;9.43;;;2.03;;
73571;SDS011;61854;48.510;-2.770;2023-07-29T07:21:47;5.57;;;1.70;;
73571;SDS011;61854;48.510;-2.770;2023-07-29T07:24:12;5.03;;;2.00;;
73571;SDS011;61854;48.510;-2.770;2023-07-29T07:26:38;7.40;;;2.00;;
73571;SDS011;61854;48.510;-2.770;2023-07-29T07:29:03;7.80;;;2.42;;
73571;SDS011;61854;48.510;-2.770;2023-07-29T07:31:32;8.27;;;2.10;;
73571;SDS011;61854;48.510;-2.770;2023-07-29T07:33:58;7.07;;;2.30;;
73571;SDS011;61854;48.510;-2.770;2023-07-29T07:36:24;8.18;;;2.00;;
73571;SDS011;61854;48.510;-2.770;2023-07-29T07:38:49;7.15;;;2.10;;
73571;SDS011;61854;48.510;-2.770;2023-07-29T07:41:15;7.60;;;2.00;;
73571;SDS011;61854;48.510;-2.770;2023-07-29T07:43:41;7.70;;;2.00;;
73571;SDS011;61854;48.510;-2.770;2023-07-29T07:46:06;10.13;;;2.47;;
73571;SDS011;61854;48.510;-2.770;2023-07-29T07:48:32;8.60;;;2.08;;
73571;SDS011;61854;48.510;-2.770;2023-07-29T07:50:58;7.00;;;2.00;;
73571;SDS011;61854;48.510;-2.770;2023-07-29T07:53:23;8.57;;;2.20;;
73571;SDS011;61854;48.510;-2.770;2023-07-29T07:55:50;6.45;;;1.80;;
73571;SDS011;61854;48.510;-2.770;2023-07-29T07:58:19;5.72;;;1.65;;
73571;SDS011;61854;48.510;-2.770;2023-07-29T08:00:45;11.00;;;2.25;;
73571;SDS011;61854;48.510;-2.770;2023-07-29T08:03:10;8.98;;;2.17;;
73571;SDS011;61854;48.510;-2.770;2023-07-29T08:05:36;8.20;;;2.13;;
73571;SDS011;61854;48.510;-2.770;2023-07-29T08:08:01;7.22;;;1.90;;
73571;SDS011;61854;48.510;-2.770;2023-07-29T08:10:27;8.77;;;2.30;;
73571;SDS011;61854;48.510;-2.770;2023-07-29T08:12:53;7.40;;;1.95;;
73571;SDS011;61854;48.510;-2.770;2023-07-29T08:15:18;7.68;;;1.75;;
73571;SDS011;61854;48.510;-2.770;2023-07-29T08:17:45;7.55;;;1.80;;
73571;SDS011;61854;48.510;-2.770;2023-07-29T08:20:11;6.15;;;2.03;;
73571;SDS011;61854;48.510;-2.770;2023-07-29T08:22:36;8.73;;;2.03;;
73571;SDS011;61854;48.510;-2.770;2023-07-29T08:25:02;6.85;;;1.98;;
73571;SDS011;61854;48.510;-2.770;2023-07-29T08:27:28;9.18;;;1.90;;
73571;SDS011;61854;48.510;-2.770;2023-07-29T08:29:53;9.85;;;2.13;;
73571;SDS011;61854;48.510;-2.770;2023-07-29T08:32:19;9.23;;;2.05;;
73571;SDS011;61854;48.510;-2.770;2023-07-29T08:34:45;6.95;;;2.00;;
73571;SDS011;61854;48.510;-2.770;2023-07-29T08:37:11;10.70;;;2.10;;
73571;SDS011;61854;48.510;-2.770;2023-07-29T08:39:36;9.07;;;2.10;;
73571;SDS011;61854;48.510;-2.770;2023-07-29T08:44:36;9.73;;;2.17;;
73571;SDS011;61854;48.510;-2.770;2023-07-29T08:47:06;8.25;;;2.15;;
73571;SDS011;61854;48.510;-2.770;2023-07-29T08:49:32;8.27;;;1.90;;
73571;SDS011;61854;48.510;-2.770;2023-07-29T08:51:58;8.65;;;1.80;;
73571;SDS011;61854;48.510;-2.770;2023-07-29T08:54:26;5.43;;;1.70;;
73571;SDS011;61854;48.510;-2.770;2023-07-29T08:56:51;9.35;;;2.10;;
73571;SDS011;61854;48.510;-2.770;2023-07-29T08:59:17;7.15;;;2.05;;
73571;SDS011;61854;48.510;-2.770;2023-07-29T09:01:44;6.07;;;1.90;;
73571;SDS011;61854;48.510;-2.770;2023-07-29T09:04:10;9.07;;;1.80;;
73571;SDS011;61854;48.510;-2.770;2023-07-29T09:06:36;8.80;;;2.10;;
73571;SDS011;61854;48.510;-2.770;2023-07-29T09:09:05;5.82;;;1.90;;
73571;SDS011;61854;48.510;-2.770;2023-07-29T09:11:33;4.93;;;1.50;;
73571;SDS011;61854;48.510;-2.770;2023-07-29T09:13:58;5.47;;;1.70;;
73571;SDS011;61854;48.510;-2.770;2023-07-29T09:16:27;8.32;;;1.90;;
73571;SDS011;61854;48.510;-2.770;2023-07-29T09:18:53;5.25;;;1.70;;
73571;SDS011;61854;48.510;-2.770;2023-07-29T09:21:23;6.63;;;2.00;;
73571;SDS011;61854;48.510;-2.770;2023-07-29T09:23:51;10.65;;;2.05;;
73571;SDS011;61854;48.510;-2.770;2023-07-29T09:26:24;8.40;;;1.80;;
73571;SDS011;61854;48.510;-2.770;2023-07-29T09:28:54;8.05;;;1.45;;
73571;SDS011;61854;48.510;-2.770;2023-07-29T09:31:21;9.00;;;1.80;;
73571;SDS011;61854;48.510;-2.770;2023-07-29T09:33:48;4.68;;;1.45;;
73571;SDS011;61854;48.510;-2.770;2023-07-29T09:36:14;8.00;;;2.05;;
73571;SDS011;61854;48.510;-2.770;2023-07-29T09:38:40;5.70;;;1.52;;
73571;SDS011;61854;48.510;-2.770;2023-07-29T09:41:06;5.18;;;1.65;;
73571;SDS011;61854;48.510;-2.770;2023-07-29T09:43:32;7.18;;;1.50;;
73571;SDS011;61854;48.510;-2.770;2023-07-29T09:46:02;5.97;;;1.73;;
73571;SDS011;61854;48.510;-2.770;2023-07-29T09:48:32;4.57;;;1.45;;
73571;SDS011;61854;48.510;-2.770;2023-07-29T09:50:59;4.85;;;1.35;;
73571;SDS011;61854;48.510;-2.770;2023-07-29T09:53:25;4.15;;;1.20;;
73571;SDS011;61854;48.510;-2.770;2023-07-29T09:55:51;5.60;;;1.17;;
73571;SDS011;61854;48.510;-2.770;2023-07-29T09:58:27;4.13;;;0.90;;
73571;SDS011;61854;48.510;-2.770;2023-07-29T10:00:53;4.20;;;1.38;;
73571;SDS011;61854;48.510;-2.770;2023-07-29T10:03:20;4.13;;;1.00;;
73571;SDS011;61854;48.510;-2.770;2023-07-29T10:05:46;1.67;;;0.70;;
73571;SDS011;61854;48.510;-2.770;2023-07-29T10:08:12;3.90;;;1.10;;
73571;SDS011;61854;48.510;-2.770;2023-07-29T10:10:41;4.53;;;1.20;;
73571;SDS011;61854;48.510;-2.770;2023-07-29T10:13:07;3.33;;;1.02;;
73571;SDS011;61854;48.510;-2.770;2023-07-29T10:15:34;2.83;;;1.10;;
73571;SDS011;61854;48.510;-2.770;2023-07-29T10:18:01;4.40;;;1.20;;
73571;SDS011;61854;48.510;-2.770;2023-07-29T10:20:30;3.33;;;1.27;;
73571;SDS011;61854;48.510;-2.770;2023-07-29T10:22:59;5.85;;;1.50;;
73571;SDS011;61854;48.510;-2.770;2023-07-29T10:25:25;4.75;;;1.25;;
73571;SDS011;61854;48.510;-2.770;2023-07-29T10:28:06;3.33;;;1.27;;
73571;SDS011;61854;48.510;-2.770;2023-07-29T10:30:33;3.25;;;1.25;;
73571;SDS011;61854;48.510;-2.770;2023-07-29T10:33:01;3.90;;;1.10;;
73571;SDS011;61854;48.510;-2.770;2023-07-29T10:35:27;5.53;;;1.20;;
73571;SDS011;61854;48.510;-2.770;2023-07-29T10:37:53;4.65;;;1.15;;
73571;SDS011;61854;48.510;-2.770;2023-07-29T10:40:20;3.78;;;1.08;;
73571;SDS011;61854;48.510;-2.770;2023-07-29T10:43:00;4.32;;;1.10;;
73571;SDS011;61854;48.510;-2.770;2023-07-29T10:45:37;5.30;;;1.35;;
73571;SDS011;61854;48.510;-2.770;2023-07-29T10:48:05;6.72;;;1.25;;
73571;SDS011;61854;48.510;-2.770;2023-07-29T10:50:37;5.45;;;1.30;;
73571;SDS011;61854;48.510;-2.770;2023-07-29T10:53:04;3.08;;;1.08;;
73571;SDS011;61854;48.510;-2.770;2023-07-29T10:55:32;5.13;;;1.13;;
73571;SDS011;61854;48.510;-2.770;2023-07-29T10:58:08;5.57;;;1.30;;
73571;SDS011;61854;48.510;-2.770;2023-07-29T11:00:39;3.30;;;1.10;;
73571;SDS011;61854;48.510;-2.770;2023-07-29T11:03:07;3.97;;;1.20;;
73571;SDS011;61854;48.510;-2.770;2023-07-29T11:08:22;4.85;;;1.30;;
73571;SDS011;61854;48.510;-2.770;2023-07-29T11:13:25;7.00;;;1.33;;
73571;SDS011;61854;48.510;-2.770;2023-07-29T11:15:52;3.75;;;1.23;;
73571;SDS011;61854;48.510;-2.770;2023-07-29T11:18:19;3.17;;;1.00;;
73571;SDS011;61854;48.510;-2.770;2023-07-29T11:20:46;4.25;;;1.40;;
73571;SDS011;61854;48.510;-2.770;2023-07-29T11:23:12;5.70;;;1.40;;
73571;SDS011;61854;48.510;-2.770;2023-07-29T11:25:38;5.05;;;1.33;;
73571;SDS011;61854;48.510;-2.770;2023-07-29T11:28:04;4.13;;;1.10;;
73571;SDS011;61854;48.510;-2.770;2023-07-29T11:30:30;7.13;;;1.55;;
73571;SDS011;61854;48.510;-2.770;2023-07-29T11:32:56;5.43;;;1.33;;
73571;SDS011;61854;48.510;-2.770;2023-07-29T11:35:23;4.87;;;1.20;;
73571;SDS011;61854;48.510;-2.770;2023-07-29T11:37:50;3.72;;;1.30;;
73571;SDS011;61854;48.510;-2.770;2023-07-29T11:40:18;5.47;;;1.67;;
73571;SDS011;61854;48.510;-2.770;2023-07-29T11:42:45;5.00;;;1.33;;
73571;SDS011;61854;48.510;-2.770;2023-07-29T11:45:12;5.32;;;1.77;;
73571;SDS011;61854;48.510;-2.770;2023-07-29T11:47:38;7.10;;;1.70;;
73571;SDS011;61854;48.510;-2.770;2023-07-29T11:50:05;6.03;;;1.30;;
73571;SDS011;61854;48.510;-2.770;2023-07-29T11:52:34;6.15;;;1.08;;
73571;SDS011;61854;48.510;-2.770;2023-07-29T11:55:04;3.28;;;1.08;;
73571;SDS011;61854;48.510;-2.770;2023-07-29T11:57:30;3.35;;;1.20;;
73571;SDS011;61854;48.510;-2.770;2023-07-29T11:59:59;3.72;;;1.02;;
73571;SDS011;61854;48.510;-2.770;2023-07-29T12:02:31;5.78;;;1.92;;
73571;SDS011;61854;48.510;-2.770;2023-07-29T12:04:58;5.70;;;1.85;;
73571;SDS011;61854;48.510;-2.770;2023-07-29T12:07:24;5.15;;;1.50;;
73571;SDS011;61854;48.510;-2.770;2023-07-29T12:09:50;5.03;;;1.50;;
73571;SDS011;61854;48.510;-2.770;2023-07-29T12:12:16;7.43;;;1.58;;
73571;SDS011;61854;48.510;-2.770;2023-07-29T12:14:43;3.85;;;1.48;;
73571;SDS011;61854;48.510;-2.770;2023-07-29T12:17:11;3.55;;;1.50;;
73571;SDS011;61854;48.510;-2.770;2023-07-29T12:19:37;4.30;;;1.70;;
73571;SDS011;61854;48.510;-2.770;2023-07-29T12:22:05;2.35;;;1.30;;
73571;SDS011;61854;48.510;-2.770;2023-07-29T12:24:33;3.95;;;1.50;;
73571;SDS011;61854;48.510;-2.770;2023-07-29T12:27:00;5.78;;;1.80;;
73571;SDS011;61854;48.510;-2.770;2023-07-29T12:29:26;4.35;;;1.35;;
73571;SDS011;61854;48.510;-2.770;2023-07-29T12:31:59;4.50;;;1.25;;
73571;SDS011;61854;48.510;-2.770;2023-07-29T12:34:27;5.55;;;1.27;;
73571;SDS011;61854;48.510;-2.770;2023-07-29T12:36:54;4.63;;;1.65;;
73571;SDS011;61854;48.510;-2.770;2023-07-29T12:39:25;5.18;;;2.00;;
73571;SDS011;61854;48.510;-2.770;2023-07-29T12:41:52;4.65;;;1.95;;
73571;SDS011;61854;48.510;-2.770;2023-07-29T12:44:27;3.97;;;1.48;;
73571;SDS011;61854;48.510;-2.770;2023-07-29T12:46:55;5.20;;;1.45;;
73571;SDS011;61854;48.510;-2.770;2023-07-29T12:49:21;3.17;;;1.20;;
73571;SDS011;61854;48.510;-2.770;2023-07-29T12:51:47;3.70;;;1.30;;
73571;SDS011;61854;48.510;-2.770;2023-07-29T12:54:13;3.08;;;1.17;;
73571;SDS011;61854;48.510;-2.770;2023-07-29T12:56:38;3.85;;;1.00;;
73571;SDS011;61854;48.510;-2.770;2023-07-29T12:59:04;3.97;;;1.08;;
73571;SDS011;61854;48.510;-2.770;2023-07-29T13:01:30;3.40;;;1.00;;
73571;SDS011;61854;48.510;-2.770;2023-07-29T13:03:56;2.50;;;1.02;;
73571;SDS011;61854;48.510;-2.770;2023-07-29T13:06:22;3.35;;;1.27;;
73571;SDS011;61854;48.510;-2.770;2023-07-29T13:08:48;3.72;;;1.30;;
73571;SDS011;61854;48.510;-2.770;2023-07-29T13:11:14;3.97;;;1.48;;
73571;SDS011;61854;48.510;-2.770;2023-07-29T13:13:41;5.18;;;1.67;;
73571;SDS011;61854;48.510;-2.770;2023-07-29T13:16:07;4.38;;;1.38;;
73571;SDS011;61854;48.510;-2.770;2023-07-29T13:18:32;6.00;;;1.80;;
73571;SDS011;61854;48.510;-2.770;2023-07-29T13:20:59;5.63;;;1.70;;
73571;SDS011;61854;48.510;-2.770;2023-07-29T13:23:25;5.50;;;1.85;;
73571;SDS011;61854;48.510;-2.770;2023-07-29T13:25:51;5.97;;;1.77;;
73571;SDS011;61854;48.510;-2.770;2023-07-29T13:28:17;5.18;;;1.95;;
73571;SDS011;61854;48.510;-2.770;2023-07-29T13:30:44;6.53;;;2.25;;
73571;SDS011;61854;48.510;-2.770;2023-07-29T13:33:10;4.97;;;2.00;;
73571;SDS011;61854;48.510;-2.770;2023-07-29T13:35:35;6.30;;;2.58;;
73571;SDS011;61854;48.510;-2.770;2023-07-29T13:38:01;8.07;;;2.53;;
73571;SDS011;61854;48.510;-2.770;2023-07-29T13:40:27;7.90;;;2.10;;
73571;SDS011;61854;48.510;-2.770;2023-07-29T13:42:53;7.85;;;2.10;;
73571;SDS011;61854;48.510;-2.770;2023-07-29T13:45:19;6.03;;;1.88;;
73571;SDS011;61854;48.510;-2.770;2023-07-29T13:47:45;6.47;;;1.85;;
73571;SDS011;61854;48.510;-2.770;2023-07-29T13:50:11;5.22;;;1.70;;
73571;SDS011;61854;48.510;-2.770;2023-07-29T13:52:37;5.20;;;1.80;;
73571;SDS011;61854;48.510;-2.770;2023-07-29T13:55:03;5.43;;;1.70;;
73571;SDS011;61854;48.510;-2.770;2023-07-29T13:57:30;5.25;;;1.67;;
73571;SDS011;61854;48.510;-2.770;2023-07-29T13:59:56;3.35;;;1.50;;
73571;SDS011;61854;48.510;-2.770;2023-07-29T14:02:21;5.50;;;1.80;;
73571;SDS011;61854;48.510;-2.770;2023-07-29T14:04:47;5.50;;;1.50;;
73571;SDS011;61854;48.510;-2.770;2023-07-29T14:07:12;6.28;;;1.70;;
73571;SDS011;61854;48.510;-2.770;2023-07-29T14:09:38;7.20;;;1.90;;
73571;SDS011;61854;48.510;-2.770;2023-07-29T14:12:04;3.75;;;1.30;;
73571;SDS011;61854;48.510;-2.770;2023-07-29T14:14:30;3.45;;;1.10;;
73571;SDS011;61854;48.510;-2.770;2023-07-29T14:16:56;6.43;;;1.30;;
73571;SDS011;61854;48.510;-2.770;2023-07-29T14:19:22;8.07;;;1.25;;
73571;SDS011;61854;48.510;-2.770;2023-07-29T14:21:48;6.70;;;1.30;;
73571;SDS011;61854;48.510;-2.770;2023-07-29T14:24:13;3.65;;;1.30;;
73571;SDS011;61854;48.510;-2.770;2023-07-29T14:26:40;4.38;;;1.50;;
73571;SDS011;61854;48.510;-2.770;2023-07-29T14:29:06;7.07;;;1.77;;
73571;SDS011;61854;48.510;-2.770;2023-07-29T14:31:32;3.65;;;1.13;;
73571;SDS011;61854;48.510;-2.770;2023-07-29T14:33:57;4.60;;;1.20;;
73571;SDS011;61854;48.510;-2.770;2023-07-29T14:36:24;3.47;;;1.30;;
73571;SDS011;61854;48.510;-2.770;2023-07-29T14:38:50;5.00;;;1.48;;
73571;SDS011;61854;48.510;-2.770;2023-07-29T14:41:16;5.93;;;1.27;;
73571;SDS011;61854;48.510;-2.770;2023-07-29T14:43:41;4.15;;;1.33;;
73571;SDS011;61854;48.510;-2.770;2023-07-29T14:46:07;3.47;;;1.13;;
73571;SDS011;61854;48.510;-2.770;2023-07-29T14:48:33;3.22;;;1.10;;